Baird, Texas
Current Conditions -  °F | °C
As of 1:52 PM on Saturday 25 Oct 2014 (Local Time) from KABI Reporting Station
Clear Clear  
Wind Chill: 31°   Ceiling: Unl
Heat Index: 31°   Visibility: 10mi
Dew Point: 12°   Wind: 10mph
Humidity: 31%   Direction: 180°S
Pressure: 30.13"   Gusts: 20mph
Location:  32.39°N, 99.39°W
Report Text: KABI 251852Z 18009G17KT 10SM CLR 31/12 A3013 RMK AO2 SLP178 T03060117 $
Loading
Personal Weather Stations






























Interactive Weather Map
Tropical Storm Tracking
New forecast layout! Learn more

10-Day Weather Forecast

Advertisements
Track Severe Weather on mobile